createdAt,value
2023-03-22T00:01:41.054Z,48.30
2023-03-22T00:04:13.468Z,49.10
2023-03-22T00:06:45.388Z,51.30
2023-03-22T00:09:17.456Z,49.20
2023-03-22T00:11:51.112Z,47.90
2023-03-22T00:14:25.746Z,49.40
2023-03-22T00:16:57.771Z,48.00
2023-03-22T00:19:30.419Z,47.50
2023-03-22T00:22:03.650Z,47.70
2023-03-22T00:24:38.806Z,47.40
2023-03-22T00:27:11.269Z,49.10
2023-03-22T00:29:48.683Z,51.40
2023-03-22T00:32:21.285Z,46.60
2023-03-22T00:34:55.106Z,49.40
2023-03-22T00:37:34.146Z,52.40
2023-03-22T00:40:09.030Z,51.60
2023-03-22T00:42:42.522Z,53.10
2023-03-22T00:45:15.825Z,51.50
2023-03-22T00:47:48.049Z,50.00
2023-03-22T00:50:23.309Z,53.90
2023-03-22T00:52:55.465Z,52.00
2023-03-22T00:55:27.572Z,51.00
2023-03-22T00:58:00.454Z,51.30
2023-03-22T01:00:34.916Z,52.80
2023-03-22T01:03:07.190Z,56.80
2023-03-22T01:05:39.343Z,54.30
2023-03-22T01:08:13.055Z,53.10
2023-03-22T01:10:47.589Z,53.10
2023-03-22T01:13:21.538Z,54.10
2023-03-22T01:15:54.373Z,54.80
2023-03-22T01:18:26.642Z,51.20
2023-03-22T01:21:00.117Z,54.30
2023-03-22T01:23:32.233Z,55.70
2023-03-22T01:26:05.007Z,50.90
2023-03-22T01:28:37.313Z,51.60
2023-03-22T01:31:10.172Z,52.00
2023-03-22T01:33:42.184Z,49.80
2023-03-22T01:36:14.793Z,51.40
2023-03-22T01:38:46.908Z,57.40
2023-03-22T01:41:20.632Z,53.90
2023-03-22T01:44:14.098Z,51.90
2023-03-22T01:46:48.461Z,51.70
2023-03-22T01:49:24.516Z,51.30
2023-03-22T01:52:00.464Z,53.00
2023-03-22T01:54:46.181Z,51.50
2023-03-22T01:57:39.547Z,50.40
2023-03-22T02:00:17.232Z,51.90
2023-03-22T02:03:02.138Z,52.40
2023-03-22T02:05:42.139Z,54.80
2023-03-22T02:08:15.164Z,53.20
2023-03-22T02:11:06.499Z,52.60
2023-03-22T02:13:57.527Z,48.90
2023-03-22T02:17:12.160Z,49.70
2023-03-22T02:23:03.719Z,52.20
2023-03-22T02:26:06.025Z,49.40
2023-03-22T02:28:49.740Z,50.80
2023-03-22T02:31:40.641Z,54.20
2023-03-22T02:34:37.510Z,55.70
2023-03-22T02:37:40.281Z,56.70
2023-03-22T02:40:16.632Z,54.30
2023-03-22T02:42:57.688Z,57.20
2023-03-22T02:45:36.104Z,56.20
2023-03-22T02:48:16.712Z,55.20
2023-03-22T02:50:54.943Z,55.90
2023-03-22T02:53:31.846Z,54.20
2023-03-22T02:56:08.159Z,56.20
2023-03-22T02:58:45.856Z,59.60
2023-03-22T03:01:24.905Z,65.80
2023-03-22T03:04:01.241Z,65.50
2023-03-22T03:06:38.977Z,60.40
2023-03-22T03:09:13.878Z,58.80
2023-03-22T03:11:49.085Z,64.30
2023-03-22T03:14:26.595Z,57.10
2023-03-22T03:17:14.415Z,59.20
2023-03-22T03:19:58.684Z,58.20
2023-03-22T03:22:44.779Z,58.00
2023-03-22T03:25:26.191Z,57.30
2023-03-22T03:28:05.637Z,58.80
2023-03-22T03:30:43.415Z,58.30
2023-03-22T03:33:20.850Z,58.20
2023-03-22T03:35:57.901Z,60.10
2023-03-22T03:38:32.944Z,56.10
2023-03-22T03:41:07.955Z,58.60
2023-03-22T03:43:41.178Z,57.40
2023-03-22T03:46:13.972Z,59.90
2023-03-22T03:48:49.806Z,53.80
2023-03-22T03:51:21.842Z,56.70
2023-03-22T03:53:54.314Z,54.40
2023-03-22T03:56:26.561Z,54.80
2023-03-22T03:58:58.938Z,57.10
2023-03-22T04:01:31.021Z,55.40
2023-03-22T04:04:11.561Z,52.50
2023-03-22T04:06:54.371Z,54.30
2023-03-22T04:09:29.507Z,56.30
2023-03-22T04:12:04.306Z,56.70
2023-03-22T04:14:36.871Z,56.90
2023-03-22T04:17:14.536Z,59.80
2023-03-22T04:19:46.528Z,56.20
2023-03-22T04:22:21.641Z,60.00
2023-03-22T04:24:56.577Z,58.10
2023-03-22T04:27:31.036Z,57.80
2023-03-22T04:30:10.703Z,58.50
2023-03-22T04:33:11.780Z,61.20
2023-03-22T04:36:10.265Z,56.60
2023-03-22T04:38:50.781Z,58.50
2023-03-22T04:41:24.950Z,57.60
2023-03-22T04:44:03.524Z,55.20
2023-03-22T04:46:38.112Z,57.80
2023-03-22T04:49:11.317Z,57.70
2023-03-22T04:51:44.804Z,56.50
2023-03-22T04:54:37.392Z,59.60
2023-03-22T04:57:09.594Z,60.40
2023-03-22T04:59:45.096Z,56.80
2023-03-22T05:02:17.231Z,62.70
2023-03-22T05:04:49.949Z,66.40
2023-03-22T05:07:36.620Z,70.40
2023-03-22T05:10:11.712Z,70.90
2023-03-22T05:12:44.978Z,75.10
2023-03-22T05:15:27.476Z,75.70
2023-03-22T05:17:59.922Z,66.50
2023-03-22T05:20:32.678Z,63.10
2023-03-22T05:23:23.202Z,54.20
2023-03-22T05:25:58.376Z,55.70
2023-03-22T05:28:32.066Z,55.90
2023-03-22T05:31:17.332Z,56.00
2023-03-22T05:33:54.835Z,55.60
2023-03-22T05:36:29.844Z,54.20
2023-03-22T05:39:28.267Z,54.20
2023-03-22T05:42:00.981Z,55.00
2023-03-22T05:44:35.540Z,57.50
2023-03-22T05:47:13.534Z,53.80
2023-03-22T05:50:06.801Z,54.30
2023-03-22T05:52:39.084Z,53.70
2023-03-22T05:55:46.471Z,53.70
2023-03-22T05:58:19.244Z,55.40
2023-03-22T06:00:52.838Z,54.10
2023-03-22T06:03:32.175Z,50.60
2023-03-22T06:06:12.135Z,54.70
2023-03-22T06:08:55.310Z,55.00
2023-03-22T06:11:30.655Z,57.80
2023-03-22T06:14:02.817Z,52.00
2023-03-22T06:16:47.385Z,51.20
2023-03-22T06:19:19.643Z,52.30
2023-03-22T06:21:52.917Z,50.40
2023-03-22T06:24:26.849Z,49.50
2023-03-22T06:26:58.886Z,52.40
2023-03-22T06:29:31.566Z,52.80
2023-03-22T06:32:05.210Z,54.60
2023-03-22T06:34:37.711Z,52.60
2023-03-22T06:37:10.079Z,54.50
2023-03-22T06:39:45.424Z,45.10
2023-03-22T06:42:17.583Z,52.70
2023-03-22T06:44:50.143Z,48.10
2023-03-22T06:47:34.350Z,52.00
2023-03-22T06:50:07.290Z,52.30
2023-03-22T06:52:57.753Z,50.50
2023-03-22T06:55:33.328Z,48.90
2023-03-22T06:58:06.422Z,48.10
2023-03-22T07:00:39.436Z,50.40
2023-03-22T07:03:12.659Z,49.80
2023-03-22T07:06:01.661Z,50.20
2023-03-22T07:11:11.291Z,48.30
2023-03-22T07:13:43.472Z,48.70
2023-03-22T07:16:20.436Z,46.60
2023-03-22T07:18:57.238Z,47.80
2023-03-22T07:21:29.394Z,45.10
2023-03-22T07:24:04.468Z,49.40
2023-03-22T07:26:38.715Z,46.90
2023-03-22T07:29:13.799Z,45.70
2023-03-22T07:31:47.557Z,46.50
2023-03-22T07:34:28.804Z,45.70
2023-03-22T07:37:10.173Z,46.70
2023-03-22T07:39:42.819Z,46.20
2023-03-22T07:42:15.542Z,44.00
2023-03-22T07:44:49.877Z,39.90
2023-03-22T07:47:40.035Z,42.20
2023-03-22T07:50:19.576Z,38.20
2023-03-22T07:52:55.522Z,38.40
2023-03-22T07:55:27.527Z,39.00
2023-03-22T07:57:59.932Z,38.00
2023-03-22T08:00:32.303Z,34.10
2023-03-22T08:03:24.311Z,34.40
2023-03-22T08:06:08.614Z,32.80
2023-03-22T08:08:41.737Z,32.00
2023-03-22T08:11:14.309Z,31.30
2023-03-22T08:13:46.362Z,30.00
2023-03-22T08:16:20.030Z,29.80
2023-03-22T08:18:52.294Z,29.80
2023-03-22T08:21:26.112Z,30.20
2023-03-22T08:24:01.350Z,32.60
2023-03-22T08:26:52.263Z,32.60
2023-03-22T08:29:34.146Z,29.20
2023-03-22T08:32:08.518Z,32.60
2023-03-22T08:34:41.352Z,31.30
2023-03-22T08:37:14.427Z,32.20
2023-03-22T08:39:47.352Z,31.60
2023-03-22T08:42:32.352Z,31.90
2023-03-22T08:45:05.055Z,30.70
2023-03-22T08:47:38.896Z,34.70
2023-03-22T08:50:14.376Z,33.50
2023-03-22T08:52:57.559Z,33.30
2023-03-22T08:55:35.568Z,34.10
2023-03-22T08:58:19.112Z,33.70
2023-03-22T09:01:16.267Z,33.20
2023-03-22T09:03:53.913Z,33.00
2023-03-22T09:06:27.865Z,34.90
2023-03-22T09:08:59.997Z,32.60
2023-03-22T09:11:35.609Z,34.10
2023-03-22T09:14:10.976Z,34.20
2023-03-22T09:16:44.238Z,33.80
2023-03-22T09:19:19.393Z,32.40
2023-03-22T09:21:52.043Z,32.20
2023-03-22T09:24:34.408Z,34.90
2023-03-22T09:27:08.015Z,35.10
2023-03-22T09:29:40.032Z,32.40
2023-03-22T09:32:15.660Z,32.40
2023-03-22T09:34:48.828Z,32.30
2023-03-22T09:37:21.773Z,32.80
2023-03-22T09:39:57.696Z,29.00
2023-03-22T09:42:38.342Z,28.30
2023-03-22T09:45:17.872Z,30.90
2023-03-22T09:47:55.987Z,28.60
2023-03-22T09:50:33.210Z,29.00
2023-03-22T09:53:05.287Z,24.50
2023-03-22T09:55:45.576Z,28.90
2023-03-22T09:58:25.996Z,28.30
2023-03-22T10:03:56.698Z,25.00
2023-03-22T10:06:29.557Z,26.30
2023-03-22T10:09:11.074Z,28.10
2023-03-22T10:11:47.552Z,24.90
2023-03-22T10:14:34.274Z,30.30
2023-03-22T10:17:11.820Z,25.50
2023-03-22T10:19:52.842Z,26.20
2023-03-22T10:22:31.577Z,25.50
2023-03-22T10:25:07.383Z,26.50
2023-03-22T10:27:40.194Z,24.50
2023-03-22T10:30:23.035Z,26.70
2023-03-22T10:33:02.153Z,24.40
2023-03-22T10:35:34.770Z,26.00
2023-03-22T10:38:18.567Z,23.30
2023-03-22T10:40:53.651Z,22.50
2023-03-22T10:43:29.146Z,21.70
2023-03-22T10:46:03.852Z,25.60
2023-03-22T10:48:39.193Z,21.20
2023-03-22T10:51:17.418Z,20.90
2023-03-22T10:53:53.196Z,21.80
2023-03-22T10:56:26.320Z,22.40
2023-03-22T10:58:59.155Z,19.00
2023-03-22T11:01:33.649Z,19.50
2023-03-22T11:04:12.695Z,17.40
2023-03-22T11:06:54.820Z,20.30
2023-03-22T11:09:28.143Z,20.80
2023-03-22T11:12:01.820Z,21.90
2023-03-22T11:14:37.546Z,18.80
2023-03-22T11:17:14.588Z,19.90
2023-03-22T11:19:55.668Z,19.70
2023-03-22T11:22:32.668Z,19.20
2023-03-22T11:25:08.464Z,19.90
2023-03-22T11:27:50.079Z,21.90
2023-03-22T11:30:26.180Z,19.40
2023-03-22T11:33:17.032Z,19.40
2023-03-22T11:35:56.851Z,18.90
2023-03-22T11:38:36.668Z,19.70
2023-03-22T11:41:13.429Z,18.10
2023-03-22T11:43:51.434Z,15.90
2023-03-22T11:46:24.934Z,18.40
2023-03-22T11:49:03.159Z,19.20
2023-03-22T11:51:37.390Z,16.80
2023-03-22T11:54:16.023Z,16.20
2023-03-22T11:56:51.325Z,11.00
2023-03-22T11:59:28.142Z,10.20
2023-03-22T12:02:06.678Z,11.10
2023-03-22T12:04:42.921Z,10.60
2023-03-22T12:07:19.507Z,10.20
2023-03-22T12:09:58.975Z,10.30
2023-03-22T12:12:36.175Z,11.20
2023-03-22T12:15:14.507Z,10.00
2023-03-22T12:17:50.726Z,10.90
2023-03-22T12:20:36.048Z,9.60
2023-03-22T12:23:16.716Z,11.10
2023-03-22T12:25:52.866Z,11.80
2023-03-22T12:28:29.414Z,12.00
2023-03-22T12:31:03.835Z,10.60
2023-03-22T12:33:48.721Z,10.70
2023-03-22T12:36:27.694Z,11.50
2023-03-22T12:39:02.526Z,10.40
2023-03-22T12:41:40.067Z,10.60
2023-03-22T12:44:18.585Z,10.10
2023-03-22T12:46:54.713Z,8.50
2023-03-22T12:49:38.172Z,10.90
2023-03-22T12:52:16.721Z,10.90
2023-03-22T12:54:51.748Z,10.30
2023-03-22T12:57:24.220Z,9.20
2023-03-22T13:00:00.398Z,8.50
2023-03-22T13:02:35.544Z,9.10
2023-03-22T13:05:12.161Z,8.60
2023-03-22T13:07:55.823Z,8.80
2023-03-22T13:11:01.738Z,9.50
2023-03-22T13:13:50.024Z,8.70
2023-03-22T13:16:43.363Z,7.70
2023-03-22T13:19:34.627Z,8.80
2023-03-22T13:22:22.343Z,7.60
2023-03-22T13:25:14.630Z,7.50
2023-03-22T13:27:58.632Z,7.80
2023-03-22T13:30:35.055Z,8.60
2023-03-22T13:33:21.301Z,7.70
2023-03-22T13:35:58.914Z,9.20
2023-03-22T13:38:35.040Z,9.00
2023-03-22T13:41:10.098Z,8.70
2023-03-22T13:43:51.236Z,10.50
2023-03-22T13:46:50.489Z,7.60
2023-03-22T13:49:53.427Z,8.30
2023-03-22T13:52:28.978Z,7.70
2023-03-22T13:55:01.565Z,59.80
2023-03-22T13:57:50.374Z,10.30
2023-03-22T14:00:41.344Z,9.80
2023-03-22T14:03:24.501Z,9.70
2023-03-22T14:06:10.109Z,8.60
2023-03-22T14:08:44.650Z,12.70
2023-03-22T14:11:33.201Z,8.50
2023-03-22T14:14:09.179Z,7.20
2023-03-22T14:16:46.566Z,25.10
2023-03-22T14:19:23.270Z,25.60
